Time;durP1;ratioP1;P1;durP2;ratioP2;P2;SDS_P1;SDS_P2;PMS_P1;PMS_P2;Temp;Humidity;BMP_temperature;BMP_pressure;BME280_temperature;BME280_humidity;BME280_pressure;Samples;Min_cycle;Max_cycle;Signal;HPM_P1;HPM_P2
2023/04/17 00:02:17;;;;;;;0.10;0.10;;;8.80;99.90;;;;;;5013478;28;20042;-63
2023/04/17 00:04:44;;;;;;;0.60;0.60;;;8.80;99.90;;;;;;5017540;28;20061;-62
2023/04/17 00:07:10;;;;;;;19.48;1.95;;;8.80;99.90;;;;;;5015885;28;20048;-63
2023/04/17 00:09:36;;;;;;;1.38;1.30;;;8.80;99.90;;;;;;5028356;28;20073;-62
2023/04/17 00:12:02;;;;;;;0.50;0.50;;;8.90;99.90;;;;;;5034529;28;20048;-62
2023/04/17 00:14:27;;;;;;;0.60;0.60;;;8.80;99.90;;;;;;5026942;28;20049;-62
2023/04/17 00:16:53;;;;;;;13.15;4.30;;;8.80;99.90;;;;;;5014631;28;20030;-63
2023/04/17 00:19:18;;;;;;;1.25;1.20;;;8.80;99.90;;;;;;5027726;28;20520;-62
2023/04/17 00:21:44;;;;;;;0.70;0.70;;;8.70;99.90;;;;;;5013925;28;20045;-62
2023/04/17 00:24:11;;;;;;;0.60;0.60;;;8.80;99.90;;;;;;5016594;28;20038;-63
2023/04/17 00:26:37;;;;;;;0.10;0.10;;;8.80;99.90;;;;;;5015688;28;20056;-62
2023/04/17 00:29:03;;;;;;;0.40;0.40;;;8.80;99.90;;;;;;5015241;28;20389;-62
2023/04/17 00:31:28;;;;;;;0.90;0.65;;;8.80;99.90;;;;;;5018335;28;20053;-62
2023/04/17 00:33:54;;;;;;;3.13;1.35;;;8.80;99.90;;;;;;5013671;28;20040;-63
2023/04/17 00:36:20;;;;;;;0.30;0.30;;;8.80;99.90;;;;;;5019652;28;20042;-63
2023/04/17 00:38:45;;;;;;;0.57;0.57;;;8.80;99.90;;;;;;5010687;28;20429;-62
2023/04/17 00:41:11;;;;;;;0.45;0.43;;;8.90;99.90;;;;;;5021374;28;20054;-62
2023/04/17 00:43:37;;;;;;;1.55;1.45;;;8.80;99.90;;;;;;5017428;28;20078;-62
2023/04/17 00:46:04;;;;;;;1.15;1.05;;;8.90;99.90;;;;;;5021026;28;20042;-62
2023/04/17 00:48:31;;;;;;;1.63;1.52;;;8.90;99.90;;;;;;5012711;28;20148;-62
2023/04/17 00:51:01;;;;;;;7.13;1.55;;;8.90;99.90;;;;;;5020519;28;20058;-63
2023/04/17 00:53:30;;;;;;;0.60;0.60;;;8.80;99.90;;;;;;5011966;28;21361;-63
2023/04/17 00:55:58;;;;;;;0.50;0.50;;;8.80;99.90;;;;;;5012098;28;20450;-63
2023/04/17 00:58:24;;;;;;;0.93;0.93;;;8.70;99.90;;;;;;5012889;28;20052;-63
2023/04/17 01:00:50;;;;;;;0.10;0.10;;;8.70;99.90;;;;;;5018018;28;20042;-63
2023/04/17 01:03:17;;;;;;;1.35;1.25;;;8.70;99.90;;;;;;5021444;28;20122;-63
2023/04/17 01:05:47;;;;;;;0.13;0.13;;;8.70;99.90;;;;;;5011334;28;20050;-63
2023/04/17 01:08:13;;;;;;;2.47;2.15;;;8.80;99.90;;;;;;5019712;28;20060;-63
2023/04/17 01:10:39;;;;;;;0.65;0.65;;;8.80;99.90;;;;;;5015801;28;20051;-63
2023/04/17 01:13:06;;;;;;;0.10;0.10;;;8.80;99.90;;;;;;5027923;28;20128;-63
2023/04/17 01:15:32;;;;;;;1.98;1.88;;;8.70;99.90;;;;;;5016317;28;20095;-63
2023/04/17 01:17:58;;;;;;;1.27;0.93;;;8.80;99.90;;;;;;5017634;28;20042;-62
2023/04/17 01:20:24;;;;;;;0.32;0.32;;;8.70;99.90;;;;;;5012593;28;20497;-63
2023/04/17 01:22:51;;;;;;;0.10;0.10;;;8.80;99.90;;;;;;5023536;28;20033;-63
2023/04/17 01:25:17;;;;;;;0.77;0.77;;;8.70;99.90;;;;;;5013887;28;20045;-63
2023/04/17 01:27:43;;;;;;;1.05;0.95;;;8.70;99.90;;;;;;5010604;28;20061;-63
2023/04/17 01:30:09;;;;;;;0.70;0.70;;;8.70;99.90;;;;;;5011322;28;20044;-63
2023/04/17 01:32:35;;;;;;;0.50;0.50;;;8.70;99.90;;;;;;5022347;28;20041;-63
2023/04/17 01:35:00;;;;;;;1.00;1.00;;;8.70;99.90;;;;;;5021538;28;20057;-63
2023/04/17 01:37:26;;;;;;;1.45;1.40;;;8.70;99.90;;;;;;5014691;28;20076;-63
2023/04/17 01:39:52;;;;;;;0.38;0.38;;;8.60;99.90;;;;;;5010517;28;20152;-63
2023/04/17 01:42:17;;;;;;;1.55;1.35;;;8.60;99.90;;;;;;5016028;28;20084;-63
2023/04/17 01:44:43;;;;;;;1.30;1.23;;;8.70;99.90;;;;;;5016781;28;20503;-63
2023/04/17 01:47:08;;;;;;;1.15;1.15;;;8.60;99.90;;;;;;5022470;28;20072;-63
2023/04/17 01:49:34;;;;;;;0.63;0.63;;;8.60;99.90;;;;;;5017882;28;20073;-63
2023/04/17 01:52:00;;;;;;;0.50;0.50;;;8.60;99.90;;;;;;5010427;28;20081;-63
2023/04/17 01:54:25;;;;;;;2.40;2.05;;;8.60;99.90;;;;;;5042890;28;20051;-63
2023/04/17 01:56:52;;;;;;;0.17;0.17;;;8.60;99.90;;;;;;5019786;28;20053;-62
2023/04/17 01:59:17;;;;;;;1.70;1.60;;;8.60;99.90;;;;;;5018985;28;20050;-63
2023/04/17 02:01:43;;;;;;;1.48;1.38;;;8.60;99.90;;;;;;5011103;28;20366;-63
2023/04/17 02:04:08;;;;;;;2.45;2.25;;;8.50;99.90;;;;;;5019494;28;20057;-62
2023/04/17 02:06:34;;;;;;;1.88;1.73;;;8.60;99.90;;;;;;5010859;28;20050;-63
2023/04/17 02:09:00;;;;;;;0.25;0.25;;;8.50;99.90;;;;;;5016895;28;20046;-62
2023/04/17 02:11:26;;;;;;;0.45;0.45;;;8.50;99.90;;;;;;5012177;28;20046;-63
2023/04/17 02:13:51;;;;;;;0.28;0.28;;;8.50;99.90;;;;;;5025731;28;20700;-63
2023/04/17 02:16:20;;;;;;;1.42;1.33;;;8.50;99.90;;;;;;5018920;28;20044;-63
2023/04/17 02:18:46;;;;;;;3.10;1.95;;;8.50;99.90;;;;;;5010468;28;20409;-63
2023/04/17 02:21:12;;;;;;;2.60;2.40;;;8.50;99.90;;;;;;5018322;28;20485;-63
2023/04/17 02:23:38;;;;;;;0.30;0.30;;;8.50;99.90;;;;;;5014037;28;20041;-63
2023/04/17 02:26:03;;;;;;;0.10;0.10;;;8.50;99.90;;;;;;5017137;28;20137;-63
2023/04/17 02:28:29;;;;;;;0.10;0.10;;;8.40;99.90;;;;;;5011935;28;20033;-63
2023/04/17 02:30:55;;;;;;;0.77;0.77;;;8.40;99.90;;;;;;5017917;28;20721;-63
2023/04/17 02:33:20;;;;;;;0.88;0.88;;;8.40;99.90;;;;;;5013552;28;20489;-63
2023/04/17 02:35:46;;;;;;;1.88;0.90;;;8.40;99.90;;;;;;5017107;28;20038;-62
2023/04/17 02:38:12;;;;;;;0.13;0.13;;;8.40;99.90;;;;;;5017807;28;20066;-62
2023/04/17 02:40:37;;;;;;;0.22;0.22;;;8.40;99.90;;;;;;5011971;28;20045;-63
2023/04/17 02:43:03;;;;;;;1.80;1.58;;;8.40;99.90;;;;;;5024061;28;20099;-63
2023/04/17 02:45:29;;;;;;;0.75;0.75;;;8.30;99.90;;;;;;5009448;28;20050;-63
2023/04/17 02:47:55;;;;;;;0.28;0.28;;;8.20;99.90;;;;;;5017303;28;20034;-63
2023/04/17 02:50:21;;;;;;;1.00;1.00;;;8.20;99.90;;;;;;5014406;28;20121;-63
2023/04/17 02:52:47;;;;;;;0.52;0.52;;;8.20;99.90;;;;;;5020630;28;20052;-62
2023/04/17 02:55:12;;;;;;;0.13;0.13;;;8.30;99.90;;;;;;5024131;28;20046;-62
2023/04/17 02:57:38;;;;;;;1.27;0.95;;;8.20;99.90;;;;;;5012741;28;20042;-62
2023/04/17 03:00:07;;;;;;;0.63;0.63;;;8.20;99.90;;;;;;5008695;28;20500;-63
2023/04/17 03:02:33;;;;;;;0.45;0.45;;;8.10;99.90;;;;;;5020824;28;20065;-62
2023/04/17 03:05:02;;;;;;;3.65;1.77;;;8.20;99.90;;;;;;5021465;28;20489;-63
2023/04/17 03:07:28;;;;;;;1.33;1.23;;;8.20;99.90;;;;;;5018851;28;20050;-62
2023/04/17 03:09:56;;;;;;;0.55;0.55;;;8.20;99.90;;;;;;5014022;28;20050;-63
2023/04/17 03:12:21;;;;;;;0.40;0.40;;;8.20;99.90;;;;;;5037413;28;20041;-63
2023/04/17 03:14:47;;;;;;;1.00;1.00;;;8.10;99.90;;;;;;5012932;28;20060;-63
2023/04/17 03:17:14;;;;;;;0.38;0.38;;;8.10;99.90;;;;;;5015385;28;20054;-62
2023/04/17 03:19:39;;;;;;;1.45;1.35;;;8.20;99.90;;;;;;5016154;28;20045;-63
2023/04/17 03:22:05;;;;;;;0.77;0.77;;;8.10;99.90;;;;;;5014129;28;20441;-62
2023/04/17 03:24:31;;;;;;;0.47;0.43;;;8.10;99.90;;;;;;5012360;28;20051;-63
2023/04/17 03:26:58;;;;;;;0.22;0.22;;;8.20;99.90;;;;;;5019036;28;20069;-62
2023/04/17 03:29:24;;;;;;;0.40;0.40;;;8.10;99.90;;;;;;5012909;28;20853;-63
2023/04/17 03:31:49;;;;;;;2.03;1.48;;;8.10;99.90;;;;;;5019370;28;20105;-62
2023/04/17 03:34:17;;;;;;;0.73;0.73;;;8.10;99.90;;;;;;5016771;28;20050;-62
2023/04/17 03:36:43;;;;;;;0.35;0.32;;;8.10;99.90;;;;;;5023381;28;20087;-62
2023/04/17 03:39:08;;;;;;;2.53;1.20;;;8.10;99.90;;;;;;5013207;28;20433;-63
2023/04/17 03:41:34;;;;;;;0.38;0.38;;;8.10;99.90;;;;;;5025237;28;20051;-63
2023/04/17 03:43:59;;;;;;;1.23;1.17;;;8.10;99.90;;;;;;5015103;28;20633;-62
2023/04/17 03:46:25;;;;;;;0.30;0.30;;;8.10;99.90;;;;;;5012629;28;20473;-62
2023/04/17 03:48:50;;;;;;;3.10;1.52;;;8.10;99.90;;;;;;5021616;28;20046;-62
2023/04/17 03:51:16;;;;;;;0.88;0.88;;;8.10;99.90;;;;;;5018565;28;20144;-63
2023/04/17 03:53:42;;;;;;;0.20;0.20;;;8.00;99.90;;;;;;5019384;28;20080;-63
2023/04/17 03:56:07;;;;;;;0.40;0.40;;;8.00;99.90;;;;;;5026174;28;20049;-62
2023/04/17 03:58:33;;;;;;;0.45;0.45;;;8.00;99.90;;;;;;5011802;28;20411;-63
2023/04/17 04:01:00;;;;;;;0.82;0.82;;;8.00;99.90;;;;;;5011696;28;20052;-62
2023/04/17 04:03:27;;;;;;;0.65;0.65;;;8.00;99.90;;;;;;5013272;28;20397;-63
2023/04/17 04:05:52;;;;;;;0.65;0.65;;;8.10;99.90;;;;;;5026141;28;20038;-63
2023/04/17 04:08:18;;;;;;;0.32;0.32;;;8.00;99.90;;;;;;5021276;28;20041;-62
2023/04/17 04:10:44;;;;;;;0.75;0.75;;;8.00;99.90;;;;;;5027415;28;20056;-62
2023/04/17 04:13:11;;;;;;;0.73;0.73;;;8.00;99.90;;;;;;5028932;28;20046;-62
2023/04/17 04:15:36;;;;;;;0.15;0.15;;;7.90;99.90;;;;;;5010533;28;20363;-63
2023/04/17 04:18:02;;;;;;;1.88;1.75;;;7.90;99.90;;;;;;5012705;28;20108;-63
2023/04/17 04:20:28;;;;;;;3.85;0.93;;;7.90;99.90;;;;;;5017605;28;20049;-63
2023/04/17 04:22:56;;;;;;;0.15;0.15;;;7.90;99.90;;;;;;5011268;28;20466;-63
2023/04/17 04:25:22;;;;;;;0.35;0.35;;;8.00;99.90;;;;;;5014757;28;20485;-63
2023/04/17 04:27:51;;;;;;;6.70;1.90;;;7.90;99.90;;;;;;5018477;28;21355;-63
2023/04/17 04:30:18;;;;;;;0.40;0.40;;;8.00;99.90;;;;;;5019464;28;20057;-63
2023/04/17 04:32:44;;;;;;;0.38;0.38;;;8.00;99.90;;;;;;5015491;28;20104;-62
2023/04/17 04:35:10;;;;;;;0.40;0.40;;;8.00;99.90;;;;;;5019559;28;20050;-63
2023/04/17 04:37:36;;;;;;;0.63;0.63;;;8.00;99.90;;;;;;5011417;28;20367;-63
2023/04/17 04:40:09;;;;;;;0.15;0.15;;;7.90;99.90;;;;;;5019168;28;20048;-62
2023/04/17 04:42:35;;;;;;;0.33;0.30;;;7.90;99.90;;;;;;5017377;28;20093;-63
2023/04/17 04:45:00;;;;;;;1.52;1.42;;;7.90;99.90;;;;;;5011959;28;20390;-63
2023/04/17 04:47:26;;;;;;;0.65;0.65;;;7.90;99.90;;;;;;5011380;28;20389;-62
2023/04/17 04:49:51;;;;;;;0.17;0.17;;;7.90;99.90;;;;;;5016899;28;20088;-62
2023/04/17 04:52:17;;;;;;;0.55;0.55;;;7.90;99.90;;;;;;5016022;28;20053;-63
2023/04/17 04:54:42;;;;;;;1.15;1.15;;;7.90;99.90;;;;;;5022710;28;20056;-62
2023/04/17 04:57:08;;;;;;;0.10;0.10;;;7.90;99.90;;;;;;5014081;28;20363;-63
2023/04/17 04:59:33;;;;;;;0.10;0.10;;;7.80;99.90;;;;;;5010305;28;20054;-62
2023/04/17 05:01:59;;;;;;;0.13;0.13;;;7.80;99.90;;;;;;5021358;28;20065;-62
2023/04/17 05:04:25;;;;;;;0.52;0.52;;;7.80;99.90;;;;;;5009869;28;20050;-63
2023/04/17 05:06:51;;;;;;;0.20;0.20;;;7.80;99.90;;;;;;5019359;28;20049;-63
2023/04/17 05:09:17;;;;;;;0.47;0.47;;;7.80;99.90;;;;;;5022954;28;20129;-63
2023/04/17 05:11:42;;;;;;;0.30;0.30;;;7.80;99.90;;;;;;5014554;28;20053;-62
2023/04/17 05:14:08;;;;;;;1.45;0.95;;;7.80;99.90;;;;;;5024866;28;20041;-63
2023/04/17 05:16:33;;;;;;;0.30;0.30;;;7.80;99.90;;;;;;5014828;28;20041;-63
2023/04/17 05:18:59;;;;;;;0.45;0.45;;;7.80;99.90;;;;;;5011311;28;20161;-63
2023/04/17 05:21:26;;;;;;;0.20;0.20;;;7.80;99.90;;;;;;5020363;28;20045;-63
2023/04/17 05:23:52;;;;;;;0.63;0.63;;;7.80;99.90;;;;;;5008963;28;20517;-62
2023/04/17 05:26:20;;;;;;;0.35;0.35;;;7.90;99.90;;;;;;5011714;28;20141;-62
2023/04/17 05:28:46;;;;;;;1.33;1.13;;;7.90;99.90;;;;;;5012980;28;20046;-62
2023/04/17 05:31:12;;;;;;;0.43;0.43;;;7.90;99.90;;;;;;5018441;28;20281;-63
2023/04/17 05:33:38;;;;;;;5.18;2.55;;;7.90;99.90;;;;;;5010482;28;20046;-62
2023/04/17 05:36:04;;;;;;;0.45;0.45;;;7.90;99.90;;;;;;5009862;28;20103;-63
2023/04/17 05:38:30;;;;;;;2.63;2.30;;;7.90;99.90;;;;;;5015388;28;20508;-63
2023/04/17 05:40:56;;;;;;;0.32;0.15;;;7.90;99.90;;;;;;5023034;28;20057;-62
2023/04/17 05:43:22;;;;;;;0.40;0.40;;;7.90;99.90;;;;;;5021030;28;20207;-62
2023/04/17 05:45:47;;;;;;;0.80;0.80;;;7.90;99.90;;;;;;5011238;28;20132;-63
2023/04/17 05:48:13;;;;;;;0.43;0.43;;;7.90;99.90;;;;;;5020932;28;20045;-63
2023/04/17 05:50:39;;;;;;;6.30;1.50;;;7.90;99.90;;;;;;5021220;28;20044;-62
2023/04/17 05:53:05;;;;;;;1.48;1.38;;;7.90;99.90;;;;;;5013526;28;20838;-62
2023/04/17 05:55:31;;;;;;;0.25;0.25;;;8.00;99.90;;;;;;5016511;28;20034;-62
2023/04/17 05:57:56;;;;;;;0.50;0.50;;;8.00;99.90;;;;;;5011377;28;20112;-62
2023/04/17 06:00:23;;;;;;;1.13;0.82;;;8.00;99.90;;;;;;5016567;28;20050;-63
2023/04/17 06:02:49;;;;;;;0.30;0.30;;;8.00;99.90;;;;;;5010615;28;20061;-62
2023/04/17 06:05:16;;;;;;;0.50;0.50;;;8.10;99.90;;;;;;5019180;28;20041;-62
2023/04/17 06:07:42;;;;;;;0.50;0.50;;;8.10;99.90;;;;;;5009215;28;20120;-63
2023/04/17 06:10:09;;;;;;;0.30;0.30;;;8.10;99.90;;;;;;5020474;28;20552;-62
2023/04/17 06:12:36;;;;;;;0.85;0.85;;;8.10;99.90;;;;;;5024349;28;20128;-63
2023/04/17 06:15:03;;;;;;;0.47;0.47;;;8.10;99.90;;;;;;5024457;28;20049;-63
2023/04/17 06:17:29;;;;;;;1.30;1.10;;;8.10;99.90;;;;;;5018845;28;20065;-63
2023/04/17 06:19:55;;;;;;;0.20;0.20;;;8.10;99.90;;;;;;5011074;28;20052;-63
2023/04/17 06:22:20;;;;;;;0.40;0.40;;;8.10;99.90;;;;;;5012961;28;20405;-63
2023/04/17 06:24:46;;;;;;;2.38;1.15;;;8.20;99.90;;;;;;5009586;28;20040;-63
2023/04/17 06:27:11;;;;;;;5.65;1.38;;;8.20;99.90;;;;;;5012581;28;20065;-63
2023/04/17 06:29:37;;;;;;;1.60;1.50;;;8.20;99.90;;;;;;5010994;28;20544;-63
2023/04/17 06:32:03;;;;;;;1.02;1.02;;;8.30;99.90;;;;;;5010590;28;20133;-63
2023/04/17 06:34:29;;;;;;;1.23;1.00;;;8.30;99.90;;;;;;5012865;28;20038;-62
2023/04/17 06:36:55;;;;;;;0.63;0.63;;;8.30;99.90;;;;;;5012575;28;20648;-63
2023/04/17 06:39:21;;;;;;;2.50;2.10;;;8.30;99.90;;;;;;5010994;28;20045;-63
2023/04/17 06:41:49;;;;;;;0.20;0.20;;;8.40;99.90;;;;;;5017214;28;20120;-63
2023/04/17 06:44:14;;;;;;;0.10;0.10;;;8.40;99.90;;;;;;5010282;28;20045;-63
2023/04/17 06:46:40;;;;;;;0.43;0.43;;;8.40;99.90;;;;;;5012293;28;20042;-63
2023/04/17 06:49:06;;;;;;;0.55;0.55;;;8.50;99.90;;;;;;5024157;28;20049;-63
2023/04/17 06:51:31;;;;;;;1.52;1.42;;;8.50;99.90;;;;;;5022466;28;20493;-63
2023/04/17 06:53:58;;;;;;;0.30;0.30;;;8.50;99.90;;;;;;5019230;28;20050;-63
2023/04/17 06:56:24;;;;;;;2.28;1.42;;;8.50;99.90;;;;;;5020653;28;20033;-63
2023/04/17 06:58:49;;;;;;;0.75;0.75;;;8.60;99.90;;;;;;5019206;28;20374;-63
2023/04/17 07:01:15;;;;;;;0.25;0.25;;;8.60;99.90;;;;;;5023544;28;20046;-63
2023/04/17 07:03:41;;;;;;;0.52;0.52;;;8.70;99.90;;;;;;5015366;28;20037;-63
2023/04/17 07:06:07;;;;;;;0.73;0.73;;;8.70;99.90;;;;;;5013422;28;20560;-63
2023/04/17 07:08:33;;;;;;;1.13;1.08;;;8.70;99.90;;;;;;5013866;28;20128;-63
2023/04/17 07:10:59;;;;;;;0.40;0.40;;;8.70;99.90;;;;;;5012814;28;20057;-62
2023/04/17 07:13:29;;;;;;;0.10;0.10;;;8.70;99.90;;;;;;5018770;28;20041;-62
2023/04/17 07:15:56;;;;;;;1.65;1.52;;;8.70;99.90;;;;;;5015325;28;20046;-62
2023/04/17 07:18:24;;;;;;;1.65;1.55;;;8.80;99.90;;;;;;5020826;28;20397;-62
2023/04/17 07:20:50;;;;;;;0.20;0.20;;;8.80;99.90;;;;;;5027429;28;20045;-62
2023/04/17 07:23:15;;;;;;;0.75;0.75;;;8.90;99.90;;;;;;5012794;28;20050;-63
2023/04/17 07:25:41;;;;;;;0.30;0.30;;;8.90;99.90;;;;;;5017489;28;20397;-63
2023/04/17 07:28:06;;;;;;;1.67;1.58;;;8.90;99.90;;;;;;5023172;28;20052;-63
2023/04/17 07:30:32;;;;;;;4.32;1.15;;;8.90;99.90;;;;;;5025257;28;20124;-63
2023/04/17 07:32:58;;;;;;;3.40;0.80;;;8.90;99.90;;;;;;5010825;28;20520;-62
2023/04/17 07:35:24;;;;;;;0.82;0.82;;;9.00;99.90;;;;;;5017284;28;20398;-63
2023/04/17 07:37:50;;;;;;;0.57;0.57;;;9.00;99.90;;;;;;5020972;28;20038;-63
2023/04/17 07:40:16;;;;;;;1.10;0.73;;;8.90;99.90;;;;;;5021514;28;20507;-63
2023/04/17 07:42:41;;;;;;;0.50;0.50;;;9.00;99.90;;;;;;5019495;28;20393;-62
2023/04/17 07:45:08;;;;;;;0.40;0.40;;;9.00;99.90;;;;;;5021196;28;20037;-63
2023/04/17 07:47:34;;;;;;;0.20;0.20;;;9.10;99.90;;;;;;5017447;28;20212;-62
2023/04/17 07:50:00;;;;;;;0.63;0.45;;;9.10;99.90;;;;;;5030655;28;20405;-63
2023/04/17 07:52:26;;;;;;;1.35;1.17;;;9.10;99.90;;;;;;5018302;28;20489;-62
2023/04/17 07:54:51;;;;;;;0.50;0.50;;;9.10;99.90;;;;;;5017712;28;20056;-63
2023/04/17 07:57:17;;;;;;;0.93;0.88;;;9.10;99.90;;;;;;5013870;28;20045;-63
2023/04/17 07:59:43;;;;;;;0.50;0.50;;;9.10;99.90;;;;;;5018511;28;20072;-63
2023/04/17 08:02:09;;;;;;;1.33;1.23;;;9.10;99.90;;;;;;5014181;28;20088;-63
2023/04/17 08:04:36;;;;;;;0.10;0.10;;;9.10;99.90;;;;;;5012156;28;20136;-62
2023/04/17 08:07:02;;;;;;;0.75;0.73;;;9.20;99.90;;;;;;5022690;28;20140;-63
2023/04/17 08:09:27;;;;;;;0.35;0.35;;;9.20;99.90;;;;;;5018392;28;20540;-63
2023/04/17 08:11:53;;;;;;;2.55;1.55;;;9.30;99.90;;;;;;5012460;28;20129;-63
2023/04/17 08:14:19;;;;;;;0.38;0.38;;;9.30;99.90;;;;;;5011472;28;20048;-63
2023/04/17 08:16:48;;;;;;;0.90;0.75;;;9.40;99.90;;;;;;5013098;28;20498;-62
2023/04/17 08:19:14;;;;;;;1.75;1.65;;;9.40;99.90;;;;;;5016927;28;20045;-63
2023/04/17 08:21:40;;;;;;;0.70;0.70;;;9.40;99.90;;;;;;5017082;28;20045;-63
2023/04/17 08:24:06;;;;;;;1.52;1.42;;;9.50;99.90;;;;;;5015997;28;20057;-63
2023/04/17 08:26:32;;;;;;;0.75;0.65;;;9.50;99.90;;;;;;5009993;28;20128;-63
2023/04/17 08:29:00;;;;;;;0.90;0.88;;;9.50;99.90;;;;;;5014784;28;20045;-62
2023/04/17 08:31:27;;;;;;;1.00;0.57;;;9.50;99.90;;;;;;5012977;28;20628;-63
2023/04/17 08:33:53;;;;;;;0.30;0.30;;;9.60;99.90;;;;;;5011166;28;20049;-62
2023/04/17 08:36:19;;;;;;;0.10;0.10;;;9.70;99.90;;;;;;5010786;28;20050;-62
2023/04/17 08:38:46;;;;;;;0.35;0.35;;;9.60;99.90;;;;;;5015386;28;20037;-63
2023/04/17 08:41:23;;;;;;;0.35;0.35;;;9.70;99.90;;;;;;5011706;28;20068;-63
2023/04/17 08:43:49;;;;;;;0.30;0.30;;;9.70;99.90;;;;;;5020282;28;20099;-63
2023/04/17 08:46:22;;;;;;;0.57;0.57;;;9.70;99.90;;;;;;5011683;28;20045;-62
2023/04/17 08:48:48;;;;;;;2.55;0.80;;;9.70;99.90;;;;;;5010746;28;20069;-62
2023/04/17 08:51:14;;;;;;;0.30;0.30;;;9.70;99.90;;;;;;5016371;28;20085;-63
2023/04/17 08:53:40;;;;;;;3.40;2.35;;;9.70;99.90;;;;;;5018217;28;20042;-63
2023/04/17 08:56:06;;;;;;;3.17;1.17;;;9.80;99.90;;;;;;5011140;28;20100;-63
2023/04/17 08:58:32;;;;;;;0.73;0.60;;;9.80;99.90;;;;;;5019173;28;20377;-63
2023/04/17 09:01:10;;;;;;;0.35;0.35;;;9.80;99.90;;;;;;5009931;28;20046;-62
2023/04/17 09:03:43;;;;;;;0.43;0.43;;;9.90;99.90;;;;;;5011571;28;20060;-63
2023/04/17 09:06:10;;;;;;;0.45;0.45;;;10.00;99.90;;;;;;5011583;28;20060;-62
2023/04/17 09:08:36;;;;;;;0.98;0.98;;;10.10;99.90;;;;;;5010096;28;20051;-63
2023/04/17 09:11:02;;;;;;;1.48;0.77;;;10.10;99.90;;;;;;5009895;28;20168;-62
2023/04/17 09:13:29;;;;;;;1.08;1.02;;;10.20;99.90;;;;;;5011184;28;20456;-62
2023/04/17 09:16:06;;;;;;;1.27;0.57;;;10.30;99.90;;;;;;5011309;28;20717;-63
2023/04/17 09:18:33;;;;;;;0.30;0.30;;;10.50;99.90;;;;;;5011363;28;20042;-62
2023/04/17 09:21:00;;;;;;;1.67;1.58;;;10.60;99.90;;;;;;5025841;28;20044;-62
2023/04/17 09:23:50;;;;;;;0.43;0.43;;;10.60;99.90;;;;;;5015483;28;20477;-63
2023/04/17 09:26:24;;;;;;;1.02;0.55;;;10.60;99.90;;;;;;5009336;28;20046;-63
2023/04/17 09:29:03;;;;;;;3.03;2.08;;;10.70;99.90;;;;;;5011268;28;20048;-62
2023/04/17 09:31:30;;;;;;;0.68;0.68;;;10.70;99.90;;;;;;5021938;28;20038;-63
2023/04/17 09:33:58;;;;;;;0.20;0.20;;;10.90;99.90;;;;;;5010949;28;20053;-62
2023/04/17 09:36:26;;;;;;;0.20;0.20;;;10.90;99.90;;;;;;5013762;28;20125;-62
2023/04/17 09:38:52;;;;;;;0.17;0.17;;;11.00;99.90;;;;;;5014704;28;20151;-62
2023/04/17 09:41:26;;;;;;;0.63;0.63;;;11.10;99.90;;;;;;5033833;28;20098;-63
2023/04/17 09:43:54;;;;;;;0.30;0.30;;;11.20;99.90;;;;;;5017276;28;20128;-63
2023/04/17 09:46:46;;;;;;;0.57;0.57;;;11.20;99.90;;;;;;5017729;28;20086;-62
2023/04/17 09:49:23;;;;;;;0.68;0.40;;;11.40;99.90;;;;;;5018557;28;20080;-63
2023/04/17 09:51:49;;;;;;;0.50;0.47;;;11.50;99.90;;;;;;5023397;28;20060;-63
2023/04/17 09:54:16;;;;;;;0.43;0.43;;;11.60;99.90;;;;;;5011153;28;20489;-63
2023/04/17 09:56:42;;;;;;;0.65;0.65;;;11.80;99.90;;;;;;5010139;28;20140;-63
2023/04/17 09:59:08;;;;;;;0.95;0.95;;;11.90;99.90;;;;;;5010036;28;20461;-63
2023/04/17 10:01:35;;;;;;;0.52;0.52;;;11.80;99.90;;;;;;5015062;28;20045;-63
2023/04/17 10:04:03;;;;;;;0.93;0.93;;;11.70;99.90;;;;;;5019061;28;20029;-63
2023/04/17 10:06:32;;;;;;;1.30;1.13;;;11.70;99.90;;;;;;5012586;28;20038;-64
2023/04/17 10:08:58;;;;;;;0.15;0.15;;;12.00;99.90;;;;;;5021110;28;20087;-63
2023/04/17 10:11:27;;;;;;;1.10;1.10;;;12.30;99.90;;;;;;5015995;28;20026;-63
2023/04/17 10:14:08;;;;;;;0.77;0.77;;;12.40;99.90;;;;;;5010413;28;20049;-63
2023/04/17 10:16:38;;;;;;;0.65;0.65;;;12.60;99.90;;;;;;5019991;28;20041;-63
2023/04/17 10:19:22;;;;;;;1.33;1.23;;;12.90;99.90;;;;;;5017874;28;20204;-63
2023/04/17 10:22:17;;;;;;;0.63;0.63;;;13.00;99.90;;;;;;5014782;28;20100;-63
2023/04/17 10:24:52;;;;;;;0.50;0.50;;;13.00;99.90;;;;;;5015903;28;20038;-63
2023/04/17 10:27:26;;;;;;;0.40;0.40;;;13.00;99.90;;;;;;5015906;28;20069;-63
2023/04/17 10:29:53;;;;;;;0.20;0.20;;;13.10;99.90;;;;;;5020221;28;20049;-63
2023/04/17 10:32:20;;;;;;;0.60;0.60;;;13.30;99.90;;;;;;5011111;28;20049;-64
2023/04/17 10:34:45;;;;;;;0.85;0.85;;;13.50;99.90;;;;;;5014548;28;20481;-64
2023/04/17 10:37:14;;;;;;;1.38;1.27;;;13.60;99.90;;;;;;5014959;28;20053;-64
2023/04/17 10:39:50;;;;;;;0.13;0.13;;;13.70;99.90;;;;;;5017376;28;20046;-63
2023/04/17 10:42:23;;;;;;;1.40;1.30;;;13.80;99.90;;;;;;5007956;28;20056;-64
2023/04/17 10:44:49;;;;;;;0.40;0.40;;;14.00;99.90;;;;;;5024418;28;20417;-63
2023/04/17 10:47:19;;;;;;;2.38;0.80;;;14.10;99.90;;;;;;5011281;28;20046;-64
2023/04/17 10:49:50;;;;;;;0.10;0.10;;;14.30;99.90;;;;;;5011026;28;20038;-63
2023/04/17 10:52:34;;;;;;;0.20;0.20;;;14.40;99.90;;;;;;5019089;28;20081;-63
2023/04/17 10:55:06;;;;;;;;;;;14.50;99.90;;;;;;5013191;28;20054;-63
2023/04/17 10:57:56;;;;;;;0.25;0.25;;;14.60;99.90;;;;;;5009707;28;19921;-64
2023/04/17 11:00:48;;;;;;;1.08;1.00;;;14.70;99.90;;;;;;5009053;28;20781;-64
2023/04/17 11:03:15;;;;;;;0.68;0.68;;;14.70;99.90;;;;;;5003273;28;20058;-63
2023/04/17 11:05:47;;;;;;;0.30;0.30;;;14.90;99.90;;;;;;5009679;28;20060;-64
2023/04/17 11:08:13;;;;;;;0.47;0.47;;;15.10;99.90;;;;;;5007626;28;20053;-63
2023/04/17 11:10:39;;;;;;;2.83;1.35;;;15.30;99.90;;;;;;5017435;28;20057;-64
2023/04/17 11:13:05;;;;;;;1.27;0.60;;;15.50;99.90;;;;;;5009786;28;20041;-64
2023/04/17 11:15:33;;;;;;;1.27;1.17;;;15.60;99.90;;;;;;5018223;28;20052;-64
2023/04/17 11:18:00;;;;;;;0.68;0.40;;;15.80;99.90;;;;;;5010025;28;20041;-64
2023/04/17 11:20:28;;;;;;;0.38;0.30;;;16.00;99.90;;;;;;5009604;28;20057;-63
2023/04/17 11:22:55;;;;;;;0.93;0.93;;;16.30;99.90;;;;;;5008707;28;20552;-63
2023/04/17 11:25:30;;;;;;;0.43;0.43;;;16.30;99.90;;;;;;5007285;28;20049;-64
2023/04/17 11:28:00;;;;;;;1.35;1.27;;;16.30;99.90;;;;;;5011644;28;20044;-68
2023/04/17 11:30:31;;;;;;;0.93;0.88;;;16.40;99.90;;;;;;5008120;28;20079;-68
2023/04/17 11:32:58;;;;;;;0.68;0.68;;;16.40;99.90;;;;;;5013494;28;20046;-68
2023/04/17 11:35:33;;;;;;;2.55;1.55;;;16.30;99.90;;;;;;5015738;28;20033;-68
2023/04/17 11:38:11;;;;;;;2.63;1.35;;;16.40;99.90;;;;;;5011951;28;20050;-68
2023/04/17 11:40:42;;;;;;;0.40;0.40;;;16.30;99.90;;;;;;5012031;28;20041;-67
2023/04/17 11:43:09;;;;;;;0.85;0.85;;;16.30;99.90;;;;;;5013350;28;20121;-67
2023/04/17 11:45:35;;;;;;;0.20;0.20;;;16.30;99.90;;;;;;5015570;28;20100;-67
2023/04/17 11:48:01;;;;;;;0.50;0.50;;;16.50;99.90;;;;;;5029648;28;20087;-67
2023/04/17 11:50:31;;;;;;;0.08;0.08;;;16.50;99.90;;;;;;5018872;28;20073;-67
2023/04/17 11:53:02;;;;;;;0.95;0.70;;;16.80;99.90;;;;;;5022338;28;20117;-67
2023/04/17 11:55:33;;;;;;;1.52;1.42;;;17.20;99.90;;;;;;5015660;28;20046;-67
2023/04/17 11:58:10;;;;;;;2.53;2.30;;;17.30;99.90;;;;;;5014837;28;20471;-68
2023/04/17 12:00:36;;;;;;;1.25;0.77;;;17.60;99.90;;;;;;5016464;28;20033;-67
2023/04/17 12:03:23;;;;;;;1.15;1.08;;;17.80;99.90;;;;;;5016667;28;20426;-64
2023/04/17 12:05:58;;;;;;;0.82;0.82;;;17.90;99.90;;;;;;5010227;28;20045;-64
2023/04/17 12:08:24;;;;;;;1.65;1.35;;;18.00;99.90;;;;;;5014289;28;20088;-64
2023/04/17 12:10:49;;;;;;;0.75;0.47;;;18.00;99.90;;;;;;5022221;28;20115;-64
2023/04/17 12:13:15;;;;;;;1.27;0.75;;;18.20;99.90;;;;;;5014482;28;20482;-64
2023/04/17 12:15:40;;;;;;;0.63;0.63;;;18.40;99.90;;;;;;5013387;28;20053;-64
2023/04/17 12:18:08;;;;;;;0.65;0.65;;;18.10;99.90;;;;;;5013287;28;20049;-64
2023/04/17 12:20:35;;;;;;;1.60;1.50;;;18.30;99.90;;;;;;5013349;28;20053;-64
2023/04/17 12:23:01;;;;;;;1.65;1.30;;;18.40;99.90;;;;;;5022790;28;20151;-64
2023/04/17 12:25:26;;;;;;;0.88;0.80;;;18.50;99.90;;;;;;5013163;28;20089;-64
2023/04/17 12:27:52;;;;;;;0.63;0.63;;;18.70;99.90;;;;;;5012060;28;20120;-64
2023/04/17 12:30:18;;;;;;;0.35;0.35;;;18.90;99.90;;;;;;5012188;28;20046;-64
2023/04/17 12:32:47;;;;;;;0.22;0.22;;;19.00;99.90;;;;;;5012656;28;20045;-64
2023/04/17 12:35:14;;;;;;;6.45;1.65;;;18.90;99.90;;;;;;5012576;28;20118;-64
2023/04/17 12:37:42;;;;;;;1.27;1.25;;;18.30;99.90;;;;;;5011899;28;20485;-64
2023/04/17 12:40:08;;;;;;;1.15;0.57;;;18.40;99.90;;;;;;5016179;28;20054;-64
2023/04/17 12:42:34;;;;;;;1.23;1.13;;;18.70;99.90;;;;;;5009658;28;20049;-64
2023/04/17 12:45:00;;;;;;;1.55;1.45;;;18.80;99.90;;;;;;5013635;28;20509;-64
2023/04/17 12:47:26;;;;;;;9.80;2.60;;;19.00;99.90;;;;;;5012055;28;20084;-64
2023/04/17 12:49:51;;;;;;;2.03;1.63;;;19.20;99.90;;;;;;5022383;28;20148;-64
2023/04/17 12:52:17;;;;;;;1.58;1.48;;;19.00;99.90;;;;;;5024753;28;20537;-64
2023/04/17 12:54:42;;;;;;;0.90;0.90;;;19.30;99.90;;;;;;5011475;28;20131;-64
2023/04/17 12:57:08;;;;;;;1.45;1.20;;;19.10;99.90;;;;;;5011138;28;20052;-65